Time;durP1;ratioP1;P1;durP2;ratioP2;P2;SDS_P1;SDS_P2;PMS_P1;PMS_P2;Temp;Humidity;BMP_temperature;BMP_pressure;BME280_temperature;BME280_humidity;BME280_pressure;Samples;Min_cycle;Max_cycle;Signal;HPM_P1;HPM_P2
2023/03/24 00:02:12;;;;;;;14.40;5.40;;;;;;;;;;4799114;29;20076;-89
2023/03/24 00:04:41;;;;;;;8.30;4.93;;;;;;;;;;4829034;29;20411;-90
2023/03/24 00:07:13;;;;;;;8.48;4.72;;;;;;;;;;4813496;29;20049;-89
2023/03/24 00:09:39;;;;;;;12.23;4.68;;;;;;;;;;4813754;29;20053;-89
2023/03/24 00:12:08;;;;;;;8.88;4.15;;;;;;;;;;4828315;29;20589;-89
2023/03/24 00:14:37;;;;;;;6.88;4.63;;;;;;;;;;4813722;29;20049;-89
2023/03/24 00:17:04;;;;;;;10.52;5.60;;;;;;;;;;4813478;29;20046;-89
2023/03/24 00:19:32;;;;;;;12.25;5.38;;;;;;;;;;4813015;29;20049;-90
2023/03/24 00:22:01;;;;;;;9.93;4.90;;;;;;;;;;4799371;29;20044;-90
2023/03/24 00:24:27;;;;;;;11.35;4.95;;;;;;;;;;4813380;29;20093;-90
2023/03/24 00:26:56;;;;;;;7.65;5.18;;;;;;;;;;4828981;29;20046;-90
2023/03/24 00:29:28;;;;;;;11.52;4.57;;;;;;;;;;4813341;29;20057;-89
2023/03/24 00:31:55;;;;;;;7.15;4.63;;;;;;;;;;4813479;29;20125;-89
2023/03/24 00:34:22;;;;;;;7.95;4.50;;;;;;;;;;4812919;29;20058;-89
2023/03/24 00:36:49;;;;;;;7.55;4.82;;;;;;;;;;4812683;29;20089;-90
2023/03/24 00:39:16;;;;;;;11.63;5.43;;;;;;;;;;4812853;29;20061;-90
2023/03/24 00:41:48;;;;;;;8.52;4.53;;;;;;;;;;4812983;29;20576;-90
2023/03/24 00:44:17;;;;;;;7.70;3.95;;;;;;;;;;4812429;29;20050;-89
2023/03/24 00:46:54;;;;;;;7.53;4.47;;;;;;;;;;4798209;29;20046;-89
2023/03/24 00:52:23;;;;;;;8.88;4.28;;;;;;;;;;4812829;29;20050;-89
2023/03/24 00:54:57;;;;;;;6.93;3.83;;;;;;;;;;4816893;29;20052;-90
2023/03/24 00:57:25;;;;;;;7.00;4.07;;;;;;;;;;4800899;29;20449;-91
2023/03/24 00:59:54;;;;;;;5.32;4.43;;;;;;;;;;4815805;29;20459;-91
2023/03/24 01:02:30;;;;;;;6.40;3.60;;;;;;;;;;4815119;29;20062;-90
2023/03/24 01:04:58;;;;;;;8.35;4.53;;;;;;;;;;4813343;29;20516;-91
2023/03/24 01:07:27;;;;;;;7.78;4.75;;;;;;;;;;4813202;29;20045;-91
2023/03/24 01:09:56;;;;;;;7.82;4.20;;;;;;;;;;4812737;29;20096;-90
2023/03/24 01:12:30;;;;;;;7.07;3.78;;;;;;;;;;4812717;29;20114;-90
2023/03/24 01:15:05;;;;;;;6.22;3.65;;;;;;;;;;4812579;29;20476;-89
2023/03/24 01:17:33;;;;;;;7.03;3.85;;;;;;;;;;4812685;29;20380;-90
2023/03/24 01:20:00;;;;;;;5.60;3.47;;;;;;;;;;4812745;29;20060;-89
2023/03/24 01:22:30;;;;;;;6.57;3.40;;;;;;;;;;4812747;29;20042;-88
2023/03/24 01:24:59;;;;;;;4.88;3.60;;;;;;;;;;4813222;29;20164;-89
2023/03/24 01:27:26;;;;;;;4.30;3.83;;;;;;;;;;4812573;29;20396;-89
2023/03/24 01:29:57;;;;;;;6.57;3.25;;;;;;;;;;4812213;29;20049;-89
2023/03/24 01:32:26;;;;;;;7.50;3.75;;;;;;;;;;4812441;29;20526;-89
2023/03/24 01:34:52;;;;;;;6.88;3.83;;;;;;;;;;4797044;29;20054;-90
2023/03/24 01:37:27;;;;;;;6.85;4.07;;;;;;;;;;4812916;29;20065;-89
2023/03/24 01:39:56;;;;;;;5.03;3.60;;;;;;;;;;4812354;29;20408;-89
2023/03/24 01:42:23;;;;;;;6.10;4.22;;;;;;;;;;4827017;29;20057;-89
2023/03/24 01:44:57;;;;;;;7.35;3.63;;;;;;;;;;4811957;29;20567;-89
2023/03/24 01:47:26;;;;;;;5.38;3.53;;;;;;;;;;4812385;29;20114;-89
2023/03/24 01:49:54;;;;;;;6.55;3.80;;;;;;;;;;4811881;29;20054;-88
2023/03/24 01:52:28;;;;;;;6.38;4.25;;;;;;;;;;4811927;29;20049;-89
2023/03/24 01:54:57;;;;;;;4.40;3.45;;;;;;;;;;4812032;29;20049;-89
2023/03/24 01:57:29;;;;;;;5.28;3.45;;;;;;;;;;4811563;29;20050;-88
2023/03/24 02:00:02;;;;;;;8.68;3.67;;;;;;;;;;4812014;29;20048;-89
2023/03/24 02:02:31;;;;;;;4.93;3.65;;;;;;;;;;4811986;29;20423;-89
2023/03/24 02:04:59;;;;;;;5.40;3.22;;;;;;;;;;4811217;29;20106;-89
2023/03/24 02:07:28;;;;;;;6.78;3.80;;;;;;;;;;4812387;29;20046;-90
2023/03/24 02:10:03;;;;;;;5.93;3.47;;;;;;;;;;4813751;29;20046;-91
2023/03/24 02:15:46;;;;;;;9.18;3.75;;;;;;;;;;4834242;29;20058;-91
2023/03/24 02:22:04;;;;;;;3.60;2.92;;;;;;;;;;4844612;29;20157;-90
2023/03/24 02:25:09;;;;;;;;;;;;;;;;;;;;;
2023/03/24 02:35:10;;;;;;;;;;;;;;;;;;;;;
2023/03/24 02:38:16;;;;;;;;;;;;;;;;;;;;;
2023/03/24 02:40:51;;;;;;;7.53;4.43;;;;;;;;;;4774900;30;20502;-91
2023/03/24 02:54:14;;;;;;;;;;;;;;;;;;;;;
2023/03/24 03:14:48;;;;;;;;;;;;;;;;;;;;;
2023/03/24 03:21:09;;;;;;;;;;;;;;;;;;;;;
2023/03/24 07:00:36;;;;;;;9.98;3.78;;;;;;;;;;4845191;29;20081;-93
2023/03/24 07:03:02;;;;;;;10.68;2.92;;;;;;;;;;4829391;29;20066;-92
2023/03/24 07:05:29;;;;;;;10.10;2.70;;;;;;;;;;4829574;29;20057;-95
2023/03/24 07:07:56;;;;;;;9.98;3.17;;;;;;;;;;4855681;29;20085;-93
2023/03/24 07:10:22;;;;;;;11.73;3.60;;;;;;;;;;4867116;29;20113;-93
2023/03/24 07:12:48;;;;;;;11.52;2.88;;;;;;;;;;4867023;29;20166;-92
2023/03/24 07:15:15;;;;;;;9.85;3.42;;;;;;;;;;4866249;29;20045;-90
2023/03/24 07:17:43;;;;;;;12.15;3.33;;;;;;;;;;4835790;29;20053;-91
2023/03/24 07:20:10;;;;;;;10.65;3.45;;;;;;;;;;4867129;29;20053;-91
2023/03/24 07:22:36;;;;;;;9.70;2.80;;;;;;;;;;4851122;29;20061;-90
2023/03/24 07:25:03;;;;;;;11.55;4.10;;;;;;;;;;4851168;29;20056;-93
2023/03/24 08:03:59;;;;;;;30.02;5.60;;;;;;;;;;4783479;30;20063;-89
2023/03/24 10:59:33;;;;;;;13.13;4.57;;;;;;;;;;5990064;23;20737;31
2023/03/24 11:05:39;;;;;;;11.75;2.55;;;;;;;;;;4864306;23;21268;-92
2023/03/24 11:08:21;;;;;;;10.75;3.50;;;;;;;;;;4869800;29;20468;-90
2023/03/24 11:10:47;;;;;;;12.75;2.85;;;;;;;;;;4857528;29;20061;-90
2023/03/24 11:13:21;;;;;;;12.25;2.78;;;;;;;;;;4873212;29;20056;-93
2023/03/24 11:16:14;;;;;;;10.68;3.30;;;12.40;99.90;;;;;;4868044;29;20045;-94
2023/03/24 11:19:06;;;;;;;12.30;3.83;;;12.20;99.90;;;;;;4849921;29;20049;-94
2023/03/24 11:21:36;;;;;;;35.83;4.05;;;;;;;;;;4850031;29;20067;-95
2023/03/24 11:24:06;;;;;;;14.75;3.65;;;;;;;;;;4850287;29;20506;-95
2023/03/24 11:26:37;;;;;;;17.92;3.05;;;;;;;;;;4850153;29;20132;-93
2023/03/24 11:29:08;;;;;;;4.90;1.77;;;;;;;;;;4865639;29;20064;-93
2023/03/24 11:31:38;;;;;;;19.38;2.88;;;;;;;;;;4849950;29;20491;-94
2023/03/24 11:34:24;;;;;;;14.18;3.75;;;;;;;;;;4849606;29;20089;-93
2023/03/24 11:36:53;;;;;;;13.20;2.63;;;;;;;;;;4849947;29;20105;-93
2023/03/24 11:39:33;;;;;;;11.80;3.25;;;;;;;;;;4868846;29;20071;-92
2023/03/24 11:42:02;;;;;;;15.07;2.70;;;;;;;;;;4852830;29;20116;-91
2023/03/24 11:44:30;;;;;;;9.07;2.85;;;;;;;;;;4861078;29;20059;-93
2023/03/24 11:47:06;;;;;;;13.73;2.67;;;;;;;;;;4877020;29;20109;-88
2023/03/24 11:49:36;;;;;;;11.70;2.88;;;;;;;;;;4861324;29;20075;-94
2023/03/24 11:52:04;;;;;;;6.97;2.42;;;;;;;;;;4861579;29;20132;-90
2023/03/24 11:54:33;;;;;;;17.70;3.67;;;;;;;;;;4876797;29;20068;-90
2023/03/24 11:57:03;;;;;;;11.57;2.72;;;;;;;;;;4874946;29;20109;-89
2023/03/24 11:59:48;;;;;;;3.92;2.05;;;;;;;;;;4859128;29;20057;-94
2023/03/24 12:02:18;;;;;;;11.50;3.45;;;;;;;;;;4860201;29;20180;-92
2023/03/24 12:04:51;;;;;;;6.53;2.30;;;;;;;;;;4875401;29;20495;-94
2023/03/24 12:07:22;;;;;;;9.00;3.10;;;;;;;;;;4874072;29;20060;-94
2023/03/24 12:10:01;;;;;;;22.65;5.53;;;;;;;;;;4875020;29;20132;-95
2023/03/24 12:12:44;;;;;;;8.70;2.97;;;;;;;;;;4860199;29;20518;-91
2023/03/24 12:15:25;;;;;;;9.13;2.73;;;;;;;;;;4859837;29;20053;-90
2023/03/24 12:18:33;;;;;;;9.60;3.05;;;;;;;;;;4859462;29;20060;-88
2023/03/24 12:21:03;;;;;;;9.05;2.80;;;;;;;;;;4782730;30;20062;-92
2023/03/24 12:23:49;;;;;;;13.45;3.38;;;;;;;;;;4797696;30;20063;-93
2023/03/24 12:26:22;;;;;;;7.68;2.88;;;;;;;;;;4874031;29;20165;-89
2023/03/24 12:28:51;;;;;;;12.55;3.85;;;;;;;;;;4872779;29;20113;-89
2023/03/24 12:31:27;;;;;;;18.23;3.58;;;;;;;;;;4872508;29;20049;-93
2023/03/24 12:33:57;;;;;;;12.70;3.40;;;;;;;;;;4873058;29;20057;-93
2023/03/24 12:36:30;;;;;;;12.85;2.85;;;;;;;;;;4871616;29;20076;-92
2023/03/24 12:39:20;;;;;;;10.52;2.45;;;;;;;;;;4887646;29;20051;-90
2023/03/24 12:41:50;;;;;;;11.20;2.38;;;;;;;;;;4872107;29;20056;-88
2023/03/24 12:44:45;;;;;;;7.32;2.00;;;;;;;;;;4871084;29;20065;-89
2023/03/24 12:47:30;;;;;;;8.23;2.47;;;;;;;;;;4791160;29;20161;-90
2023/03/24 12:50:20;;;;;;;11.88;3.83;;;12.50;99.90;;;;;;4856177;29;20097;-92
2023/03/24 12:52:52;;;;;;;9.77;3.03;;;;;;;;;;4888474;29;20581;-95
2023/03/24 12:55:41;;;;;;;11.73;2.67;;;;;;;;;;4856316;29;20045;-95
2023/03/24 12:58:10;;;;;;;11.63;3.53;;;;;;;;;;4853918;29;20057;-93
2023/03/24 13:00:46;;;;;;;17.75;4.75;;;;;;;;;;4854442;29;20061;-92
2023/03/24 13:03:15;;;;;;;5.45;2.35;;;;;;;;;;4869532;29;20391;-90
2023/03/24 13:05:44;;;;;;;13.07;2.17;;;;;;;;;;4887736;29;20395;-89
2023/03/24 13:08:21;;;;;;;4.95;2.10;;;;;;;;;;4888167;29;20498;-89
2023/03/24 13:10:50;;;;;;;10.95;2.85;;;;;;;;;;4856534;29;20096;-87
2023/03/24 13:13:29;;;;;;;7.35;1.95;;;;;;;;;;4869600;29;20064;-90
2023/03/24 13:15:58;;;;;;;10.45;2.47;;;;;;;;;;4885179;29;20057;-90
2023/03/24 13:18:35;;;;;;;8.35;2.25;;;;;;;;;;4870205;29;20173;-92
2023/03/24 13:21:11;;;;;;;6.00;2.17;;;;;;;;;;4854536;29;20052;-91
2023/03/24 13:23:37;;;;;;;14.73;2.60;;;;;;;;;;4864592;29;20467;-90
2023/03/24 13:26:07;;;;;;;7.20;2.53;;;;;;;;;;4849100;29;20048;-91
2023/03/24 13:28:42;;;;;;;14.02;2.60;;;;;;;;;;4848964;29;20057;-89
2023/03/24 13:31:09;;;;;;;6.60;1.92;;;;;;;;;;4864609;29;20068;-90
2023/03/24 13:33:37;;;;;;;8.07;2.30;;;;;;;;;;4849060;29;20060;-91
2023/03/24 13:36:06;;;;;;;10.40;2.20;;;;;;;;;;4863735;29;20060;-92
2023/03/24 13:38:54;;;;;;;11.50;2.65;;;;;;;;;;4864684;29;20459;-90
2023/03/24 13:41:23;;;;;;;12.55;2.95;;;;;;;;;;4880859;29;20053;-92
2023/03/24 13:43:51;;;;;;;10.45;3.00;;;;;;;;;;4864929;29;20040;-90
2023/03/24 13:46:18;;;;;;;7.38;2.17;;;;;;;;;;4849107;29;20049;-90
2023/03/24 13:48:46;;;;;;;12.68;2.72;;;;;;;;;;4881031;29;20053;-90
2023/03/24 13:51:21;;;;;;;11.52;2.50;;;;;;;;;;4849875;29;20049;-90
2023/03/24 13:53:53;;;;;;;13.80;4.03;;;;;;;;;;4864354;29;20055;-90
2023/03/24 13:56:24;;;;;;;20.05;3.53;;;;;;;;;;4850463;29;20056;-96
2023/03/24 13:59:03;;;;;;;10.65;2.85;;;;;;;;;;4850211;29;20124;-93
2023/03/24 14:01:37;;;;;;;10.85;3.67;;;;;;;;;;4850233;29;20049;-94
2023/03/24 14:04:18;;;;;;;12.60;3.10;;;;;;;;;;4864512;29;20049;-92
2023/03/24 14:06:52;;;;;;;10.23;3.13;;;;;;;;;;4863900;29;20064;-92
2023/03/24 14:09:22;;;;;;;11.00;3.28;;;;;;;;;;4849317;29;20582;-92
2023/03/24 14:11:50;;;;;;;9.00;3.50;;;;;;;;;;4864528;29;20053;-92
2023/03/24 14:14:21;;;;;;;9.07;2.63;;;;;;;;;;4849006;29;20100;-92
2023/03/24 14:17:05;;;;;;;9.77;3.03;;;;;;;;;;4863324;29;20053;-94
2023/03/24 14:19:38;;;;;;;15.75;3.33;;;;;;;;;;4823565;29;20062;-89
2023/03/24 14:22:14;;;;;;;12.63;3.10;;;;;;;;;;4808528;29;20069;-91
2023/03/24 14:24:42;;;;;;;11.57;3.15;;;;;;;;;;4808195;29;20058;-90
2023/03/24 14:27:29;;;;;;;6.78;2.45;;;;;;;;;;4807917;29;20066;-89
2023/03/24 14:29:59;;;;;;;5.88;2.75;;;;;;;;;;4817394;29;20085;-92
2023/03/24 14:32:25;;;;;;;13.70;3.05;;;;;;;;;;4808418;29;20457;-93
2023/03/24 14:34:56;;;;;;;11.73;2.85;;;;;;;;;;4822868;29;20062;-91
2023/03/24 14:37:23;;;;;;;12.80;2.90;;;;;;;;;;4808322;29;20054;-90
2023/03/24 14:39:50;;;;;;;9.70;3.17;;;;;;;;;;4808333;29;20093;-91
2023/03/24 14:42:25;;;;;;;14.20;3.30;;;;;;;;;;4807963;29;20094;-89
2023/03/24 14:44:52;;;;;;;15.75;2.95;;;;;;;;;;4808320;29;20061;-92
2023/03/24 14:47:22;;;;;;;8.95;3.05;;;;;;;;;;4807534;29;20089;-91
2023/03/24 14:49:50;;;;;;;20.23;4.22;;;;;;;;;;4807842;29;20123;-88
2023/03/24 14:52:19;;;;;;;14.25;2.38;;;;;;;;;;4808038;29;20057;-92
2023/03/24 14:54:57;;;;;;;10.95;2.63;;;;;;;;;;4808309;29;20054;-93
2023/03/24 14:57:25;;;;;;;12.77;2.75;;;;;;;;;;4837142;29;20049;-91
2023/03/24 14:59:59;;;;;;;12.20;2.28;;;;;;;;;;4863799;29;20060;-90
2023/03/24 15:02:58;;;;;;;6.85;2.17;;;;;;;;;;4864716;29;20057;-92
2023/03/24 15:05:24;;;;;;;16.60;2.88;;;;;;;;;;4814557;29;20536;-91
2023/03/24 15:08:04;;;;;;;11.07;2.42;;;;;;;;;;4848496;29;20092;-92
2023/03/24 15:10:48;;;;;;;8.38;2.03;;;;;;;;;;4864291;29;20060;-93
2023/03/24 15:13:23;;;;;;;7.40;2.15;;;;;;;;;;4882763;29;20072;-95
2023/03/24 15:15:55;;;;;;;5.38;2.20;;;;;;;;;;4852207;29;20045;-93
2023/03/24 15:18:22;;;;;;;8.40;2.83;;;;;;;;;;4867807;29;20064;-90
2023/03/24 15:20:48;;;;;;;7.38;2.45;;;;;;;;;;4852777;29;20140;-94
2023/03/24 15:23:22;;;;;;;13.80;2.83;;;;;;;;;;4867859;29;20057;-95
2023/03/24 15:25:48;;;;;;;6.03;2.10;;;;;;;;;;4867904;29;20041;-94
2023/03/24 15:28:17;;;;;;;11.43;2.28;;;;;;;;;;4867107;29;20146;-95
2023/03/24 15:30:43;;;;;;;10.02;2.58;;;;;;;;;;4866835;29;20085;-92
2023/03/24 15:33:12;;;;;;;10.13;2.13;;;;;;;;;;4866885;29;20139;-92
2023/03/24 15:35:42;;;;;;;6.63;1.77;;;;;;;;;;4867483;29;20059;-93
2023/03/24 15:38:17;;;;;;;19.65;2.85;;;;;;;;;;4851470;29;20190;-92
2023/03/24 15:40:53;;;;;;;6.35;1.63;;;;;;;;;;4851493;29;20396;-94
2023/03/24 15:43:21;;;;;;;6.47;2.05;;;;;;;;;;4867324;29;20045;-95
2023/03/24 15:45:50;;;;;;;12.48;2.88;;;;;;;;;;4851765;29;20529;-92
2023/03/24 15:48:18;;;;;;;13.23;2.95;;;;;;;;;;4883461;29;20082;-92
2023/03/24 15:50:56;;;;;;;17.83;3.95;;;;;;;;;;4867282;29;20422;-96
2023/03/24 15:53:27;;;;;;;10.98;2.85;;;;;;;;;;4866787;29;20117;-93
2023/03/24 15:56:14;;;;;;;12.27;2.60;;;;;;;;;;4851727;29;20439;-92
2023/03/24 15:58:56;;;;;;;11.40;3.92;;;;;;;;;;4866790;29;20053;-93
2023/03/24 16:01:26;;;;;;;11.02;2.80;;;;;;;;;;4852002;29;20089;-91
2023/03/24 17:40:09;;;;;;;;;;;;;;;;;;;;;
2023/03/24 17:42:39;;;;;;;12.98;2.60;;;;;;;;;;4867115;29;20084;-91
2023/03/24 17:45:06;;;;;;;8.98;3.13;;;;;;;;;;4851549;29;20075;-91
2023/03/24 17:47:45;;;;;;;16.33;2.85;;;;;;;;;;4835215;29;20060;-92
2023/03/24 17:50:26;;;;;;;15.80;2.72;;;;;;;;;;4851745;29;20049;-90
2023/03/24 17:53:01;;;;;;;11.32;2.50;;;;;;;;;;4849974;29;20096;-92
2023/03/24 17:59:02;;;;;;;6.35;2.80;;;;;;;;;;4885087;29;20044;-92
2023/03/24 18:01:47;;;;;;;;;;;;;;;;;;;;;
2023/03/24 18:04:26;;;;;;;11.95;2.60;;;;;;;;;;4852540;29;20133;-91
2023/03/24 18:13:50;;;;;;;8.00;2.25;;;;;;;;;;4854891;29;20582;-92
2023/03/24 18:16:42;;;;;;;6.47;2.47;;;;;;;;;;4850036;29;20056;-92
2023/03/24 18:22:23;;;;;;;14.88;2.72;;;;;;;;;;4850253;29;20056;-91
2023/03/24 18:25:07;;;;;;;;;;;;;;;;;;;;;
2023/03/24 18:30:33;;;;;;;9.98;2.40;;;;;;;;;;4860363;29;20050;-91
2023/03/24 18:39:44;;;;;;;7.50;2.53;;;;;;;;;;4841872;29;20198;-92
2023/03/24 18:42:48;;;;;;;11.48;1.92;;;;;;;;;;4812644;29;20049;-91
2023/03/24 18:45:36;;;;;;;12.18;2.63;;;;;;;;;;4815551;29;20046;-91
2023/03/24 18:52:17;;;;;;;;;;;;;;;;;;;;;
2023/03/24 18:54:56;;;;;;;6.00;1.90;;;;;;;;;;4849902;29;20053;-91
2023/03/24 18:57:57;;;;;;;14.70;2.72;;;;;;;;;;4849309;29;20084;-91
2023/03/24 19:04:15;;;;;;;;;;;;;;;;;;;;;
2023/03/24 19:38:35;;;;;;;;;;;;;;;;;;;;;
2023/03/24 19:51:57;;;;;;;;;;;;;;;;;;;;;
2023/03/24 19:58:32;;;;;;;11.02;2.25;;;;;;;;;;4707715;30;20088;-90
2023/03/24 20:01:13;;;;;;;5.93;1.70;;;;;;;;;;4809282;23;20477;-90
2023/03/24 20:07:48;;;;;;;5.88;1.85;;;;;;;;;;4883044;29;20082;-90
2023/03/24 20:18:10;;;;;;;12.07;2.47;;;;;;;;;;4764972;29;20063;-90
2023/03/24 20:27:45;;;;;;;;;;;;;;;;;;;;;
2023/03/24 20:30:44;;;;;;;12.32;2.35;;;;;;;;;;4775024;30;20477;-90
2023/03/24 20:33:36;;;;;;;9.38;2.60;;;;;;;;;;4773685;30;20071;-91
2023/03/24 20:43:40;;;;;;;;;;;;;;;;;;;;;
2023/03/24 20:53:26;;;;;;;;;;;;;;;;;;;;;
2023/03/24 21:05:56;;;;;;;;;;;;;;;;;;;;;
2023/03/24 21:12:08;;;;;;;18.60;3.10;;;;;;;;;;4807467;29;20046;-90
2023/03/24 21:39:34;;;;;;;8.52;2.30;;;;;;;;;;4705538;30;20045;-90
2023/03/24 21:50:20;;;;;;;;;;;;;;;;;;;;;
2023/03/24 22:16:23;;;;;;;;;;;;;;;;;;;;;
2023/03/24 22:23:07;;;;;;;18.05;3.22;;;;;;;;;;4791055;29;20046;-91
2023/03/24 23:17:01;;;;;;;12.48;2.80;;;;;;;;;;4805645;29;20053;-91
2023/03/24 23:19:31;;;;;;;10.30;3.20;;;;;;;;;;4847215;29;20057;-91
2023/03/24 23:21:58;;;;;;;16.48;4.03;;;;;;;;;;4848034;29;20522;-91
2023/03/24 23:24:24;;;;;;;21.42;4.03;;;;;;;;;;4847723;29;20113;-91
2023/03/24 23:26:50;;;;;;;8.93;3.95;;;;;;;;;;4847333;29;20533;-91
2023/03/24 23:29:16;;;;;;;8.85;3.17;;;;;;;;;;4862389;29;20215;-91
2023/03/24 23:31:43;;;;;;;14.52;3.75;;;;;;;;;;4863461;29;20455;-90
2023/03/24 23:34:10;;;;;;;28.35;6.10;;;;;;;;;;4849308;29;20589;-90
2023/03/24 23:36:38;;;;;;;10.40;4.63;;;;;;;;;;4850551;29;20454;-90
2023/03/24 23:39:04;;;;;;;12.27;3.25;;;;;;;;;;4865788;29;20097;-90
2023/03/24 23:41:30;;;;;;;10.98;3.47;;;;;;;;;;4850821;29;20132;-91
2023/03/24 23:43:56;;;;;;;11.38;4.20;;;;;;;;;;4850323;29;20061;-89
2023/03/24 23:46:23;;;;;;;19.52;4.20;;;;;;;;;;4834889;29;20137;-91
2023/03/24 23:48:49;;;;;;;18.08;5.00;;;;;;;;;;4834870;29;20192;-90
2023/03/24 23:51:15;;;;;;;12.18;3.60;;;;;;;;;;4850352;29;20053;-90
2023/03/24 23:53:41;;;;;;;15.02;3.47;;;;;;;;;;4865794;29;20418;-90
2023/03/24 23:56:10;;;;;;;7.82;3.17;;;;;;;;;;4850413;29;20061;-91
2023/03/24 23:58:38;;;;;;;18.73;4.00;;;;;;;;;;4835097;29;20144;-90
